Alicia, AR (72410)

12:42 AM CST on February 14, 2016 (GMT -0600)
Walnut Ridge Regional | | Change Station
CLOSE
Current Station
Airport
Location: Walnut Ridge,
Elevation: 272 ft
Nearby Weather Stations
Active Advisory: Winter Weather Advisory

Elev 272 ft 36.12 °N, 90.93 °W | Updated 7 minutes ago

Partly Cloudy
Partly Cloudy
25 °F
Feels Like 19 °F
N
5
Wind Variable Wind from ENE

Today
High -- | Low -- °F
--% Chance of Precip.
Yesterday
High -- | Low -- °F
Precip. -- in
Pressure 30.36 in
Visibility 10.0 miles
Clouds Few 6000 ft
Windchill 19 °F
Dew Point 10 °F
Humidity 54%
Rainfall 0.00 in
Snow Depth Not available.
6:52 AM 5:43 PM
Waxing Crescent, 38% visible
METAR KARG 140635Z AUTO 06004KT 10SM FEW060 M04/M12 A3036 RMK AO1
Pressure 30.36 in
Visibility 10.0 miles
Clouds Few 6000 ft
Windchill 19 °F
Dew Point 10 °F
Humidity 54%
Rainfall 0.00 in
Snow Depth Not available.
6:52 AM 5:43 PM
Waxing Crescent, 38% visible
METAR KARG 140635Z AUTO 06004KT 10SM FEW060 M04/M12 A3036 RMK AO1

10-Day Weather Forecast

Almanac

Astronomy

Feb. 14, 2016 Rise Set
Actual Time
Civil Twilight
Nautical Twilight
Astronomical Twilight
Moon
Length of Visible Light
Length of Day
Tomorrow will be .
, % of the Moon is Illuminated

Today's Extremes

State Highs State Lows

Community

WunderPhotos

Upload Photos

1,892,757 photos uploaded!

WunderBlog® & News

Nearby

Air Quality

  Air Quality AQ Index Pollutant
Not available.

Snow Depth

Station Depth Elevation

Earthquake Activity

City Distance Mag. Time & Date
Minimum magnitude displayed is 2.5.

Coastal Water Temperatures

Place Temperature

Stations

Nearby Weather Stations

Station Location Temp. Windchill Dew Point Humidity Wind Precip. Elev Updated Type
                   

Watches & Warnings

Winter Weather Advisory
Issued: 8:32 PM CST Feb. 13, 2016 – National Weather Service

... Winter Weather Advisory remains in effect from 6 am to 6 PM
CST Sunday...

* snow/sleet/ice accumulations... less than 0.10 inch of snow and
sleet accumulation is expected with less than 0.10 inch of ice
accumulation possible.

* Timing... 6 am CST Sunday through 6 PM CST Sunday.

* Impacts... ice on roadways could create hazardous travel in the
advisory area. Bridges and overpasses as well as other
elevated roadways will be prone to ice and could become slick.

Precautionary/preparedness actions...

A Winter Weather Advisory means that periods of snow... sleet... or
freezing rain will cause travel difficulties. Be prepared for
slippery roads... and use caution while driving.



Tvt